sensor_id;sensor_type;location;lat;lon;timestamp;P1;durP1;ratioP1;P2;durP2;ratioP2
69822;SDS011;57119;52.516;13.508;2023-07-20T00:00:24;9.33;;;4.03;;
69822;SDS011;57119;52.516;13.508;2023-07-20T00:02:50;8.73;;;4.13;;
69822;SDS011;57119;52.516;13.508;2023-07-20T00:05:16;9.77;;;4.40;;
69822;SDS011;57119;52.516;13.508;2023-07-20T00:07:43;8.25;;;4.20;;
69822;SDS011;57119;52.516;13.508;2023-07-20T00:10:09;8.87;;;4.47;;
69822;SDS011;57119;52.516;13.508;2023-07-20T00:12:35;7.05;;;3.90;;
69822;SDS011;57119;52.516;13.508;2023-07-20T00:15:00;9.43;;;4.37;;
69822;SDS011;57119;52.516;13.508;2023-07-20T00:17:26;9.40;;;4.32;;
69822;SDS011;57119;52.516;13.508;2023-07-20T00:19:51;7.70;;;4.60;;
69822;SDS011;57119;52.516;13.508;2023-07-20T00:22:17;10.00;;;4.90;;
69822;SDS011;57119;52.516;13.508;2023-07-20T00:24:42;10.10;;;5.22;;
69822;SDS011;57119;52.516;13.508;2023-07-20T00:27:07;9.30;;;5.00;;
69822;SDS011;57119;52.516;13.508;2023-07-20T00:29:33;8.27;;;5.10;;
69822;SDS011;57119;52.516;13.508;2023-07-20T00:31:58;9.20;;;4.40;;
69822;SDS011;57119;52.516;13.508;2023-07-20T00:34:24;8.43;;;5.20;;
69822;SDS011;57119;52.516;13.508;2023-07-20T00:36:49;9.88;;;5.03;;
69822;SDS011;57119;52.516;13.508;2023-07-20T00:39:15;9.10;;;5.03;;
69822;SDS011;57119;52.516;13.508;2023-07-20T00:41:40;7.70;;;5.10;;
69822;SDS011;57119;52.516;13.508;2023-07-20T00:44:06;8.93;;;4.97;;
69822;SDS011;57119;52.516;13.508;2023-07-20T00:46:31;9.87;;;5.03;;
69822;SDS011;57119;52.516;13.508;2023-07-20T00:48:57;10.00;;;6.00;;
69822;SDS011;57119;52.516;13.508;2023-07-20T00:51:24;9.38;;;5.22;;
69822;SDS011;57119;52.516;13.508;2023-07-20T00:53:50;7.75;;;5.18;;
69822;SDS011;57119;52.516;13.508;2023-07-20T00:56:16;8.27;;;5.47;;
69822;SDS011;57119;52.516;13.508;2023-07-20T00:58:41;8.47;;;4.83;;
69822;SDS011;57119;52.516;13.508;2023-07-20T01:01:07;10.45;;;5.72;;
69822;SDS011;57119;52.516;13.508;2023-07-20T01:03:32;10.17;;;5.57;;
69822;SDS011;57119;52.516;13.508;2023-07-20T01:06:07;9.60;;;5.53;;
69822;SDS011;57119;52.516;13.508;2023-07-20T01:09:02;10.07;;;5.13;;
69822;SDS011;57119;52.516;13.508;2023-07-20T01:14:11;9.10;;;5.40;;
69822;SDS011;57119;52.516;13.508;2023-07-20T01:16:37;8.48;;;5.35;;
69822;SDS011;57119;52.516;13.508;2023-07-20T01:19:02;8.80;;;5.20;;
69822;SDS011;57119;52.516;13.508;2023-07-20T01:21:31;9.10;;;5.87;;
69822;SDS011;57119;52.516;13.508;2023-07-20T01:32:07;10.93;;;5.53;;
69822;SDS011;57119;52.516;13.508;2023-07-20T01:34:35;8.48;;;5.35;;
69822;SDS011;57119;52.516;13.508;2023-07-20T01:37:01;10.50;;;5.80;;
69822;SDS011;57119;52.516;13.508;2023-07-20T01:39:28;10.33;;;6.00;;
69822;SDS011;57119;52.516;13.508;2023-07-20T01:41:54;8.60;;;5.70;;
69822;SDS011;57119;52.516;13.508;2023-07-20T01:44:20;9.15;;;5.82;;
69822;SDS011;57119;52.516;13.508;2023-07-20T01:46:45;9.00;;;5.80;;
69822;SDS011;57119;52.516;13.508;2023-07-20T01:49:10;10.93;;;5.67;;
69822;SDS011;57119;52.516;13.508;2023-07-20T01:51:36;9.73;;;5.70;;
69822;SDS011;57119;52.516;13.508;2023-07-20T01:54:01;9.30;;;6.10;;
69822;SDS011;57119;52.516;13.508;2023-07-20T01:56:26;9.50;;;5.93;;
69822;SDS011;57119;52.516;13.508;2023-07-20T01:58:52;11.80;;;6.37;;
69822;SDS011;57119;52.516;13.508;2023-07-20T02:01:17;11.10;;;6.77;;
69822;SDS011;57119;52.516;13.508;2023-07-20T02:03:43;10.50;;;6.53;;
69822;SDS011;57119;52.516;13.508;2023-07-20T02:06:08;11.30;;;6.90;;
69822;SDS011;57119;52.516;13.508;2023-07-20T02:08:33;10.90;;;6.00;;
69822;SDS011;57119;52.516;13.508;2023-07-20T02:10:59;9.07;;;6.10;;
69822;SDS011;57119;52.516;13.508;2023-07-20T02:13:24;9.80;;;5.83;;
69822;SDS011;57119;52.516;13.508;2023-07-20T02:15:49;9.17;;;5.87;;
69822;SDS011;57119;52.516;13.508;2023-07-20T02:18:16;8.70;;;5.93;;
69822;SDS011;57119;52.516;13.508;2023-07-20T02:20:41;8.50;;;5.67;;
69822;SDS011;57119;52.516;13.508;2023-07-20T02:23:07;10.05;;;5.85;;
69822;SDS011;57119;52.516;13.508;2023-07-20T02:25:32;8.87;;;5.80;;
69822;SDS011;57119;52.516;13.508;2023-07-20T02:27:58;9.60;;;5.30;;
69822;SDS011;57119;52.516;13.508;2023-07-20T02:30:23;8.85;;;5.95;;
69822;SDS011;57119;52.516;13.508;2023-07-20T02:32:49;9.17;;;6.23;;
69822;SDS011;57119;52.516;13.508;2023-07-20T02:35:15;11.43;;;5.90;;
69822;SDS011;57119;52.516;13.508;2023-07-20T02:37:40;9.48;;;6.53;;
69822;SDS011;57119;52.516;13.508;2023-07-20T02:40:06;10.60;;;7.13;;
69822;SDS011;57119;52.516;13.508;2023-07-20T02:42:32;11.93;;;6.35;;
69822;SDS011;57119;52.516;13.508;2023-07-20T02:44:58;11.10;;;7.13;;
69822;SDS011;57119;52.516;13.508;2023-07-20T02:47:23;10.27;;;7.10;;
69822;SDS011;57119;52.516;13.508;2023-07-20T02:49:49;11.50;;;7.10;;
69822;SDS011;57119;52.516;13.508;2023-07-20T02:52:14;11.20;;;7.33;;
69822;SDS011;57119;52.516;13.508;2023-07-20T02:54:39;12.90;;;7.90;;
69822;SDS011;57119;52.516;13.508;2023-07-20T02:57:05;12.60;;;7.93;;
69822;SDS011;57119;52.516;13.508;2023-07-20T02:59:30;11.80;;;8.57;;
69822;SDS011;57119;52.516;13.508;2023-07-20T03:01:56;13.03;;;8.73;;
69822;SDS011;57119;52.516;13.508;2023-07-20T03:04:22;15.03;;;9.33;;
69822;SDS011;57119;52.516;13.508;2023-07-20T03:06:48;14.13;;;8.77;;
69822;SDS011;57119;52.516;13.508;2023-07-20T03:09:13;13.80;;;9.40;;
69822;SDS011;57119;52.516;13.508;2023-07-20T03:11:40;15.68;;;10.07;;
69822;SDS011;57119;52.516;13.508;2023-07-20T03:14:05;13.20;;;8.83;;
69822;SDS011;57119;52.516;13.508;2023-07-20T03:16:31;17.33;;;9.63;;
69822;SDS011;57119;52.516;13.508;2023-07-20T03:18:58;14.32;;;9.63;;
69822;SDS011;57119;52.516;13.508;2023-07-20T03:21:24;13.02;;;8.93;;
69822;SDS011;57119;52.516;13.508;2023-07-20T03:23:50;15.70;;;9.93;;
69822;SDS011;57119;52.516;13.508;2023-07-20T03:26:15;13.97;;;9.53;;
69822;SDS011;57119;52.516;13.508;2023-07-20T03:28:41;16.37;;;10.20;;
69822;SDS011;57119;52.516;13.508;2023-07-20T03:31:06;17.60;;;10.13;;
69822;SDS011;57119;52.516;13.508;2023-07-20T03:33:31;14.30;;;9.37;;
69822;SDS011;57119;52.516;13.508;2023-07-20T03:35:57;14.10;;;9.40;;
69822;SDS011;57119;52.516;13.508;2023-07-20T03:38:24;13.07;;;9.35;;
69822;SDS011;57119;52.516;13.508;2023-07-20T03:43:16;14.65;;;9.55;;
69822;SDS011;57119;52.516;13.508;2023-07-20T03:45:42;14.17;;;8.50;;
69822;SDS011;57119;52.516;13.508;2023-07-20T03:48:08;15.07;;;9.35;;
69822;SDS011;57119;52.516;13.508;2023-07-20T03:50:33;12.70;;;9.40;;
69822;SDS011;57119;52.516;13.508;2023-07-20T03:52:58;14.97;;;9.03;;
69822;SDS011;57119;52.516;13.508;2023-07-20T03:55:24;17.97;;;9.73;;
69822;SDS011;57119;52.516;13.508;2023-07-20T03:57:49;16.53;;;10.23;;
69822;SDS011;57119;52.516;13.508;2023-07-20T04:00:16;14.70;;;9.32;;
69822;SDS011;57119;52.516;13.508;2023-07-20T04:02:42;13.85;;;8.43;;
69822;SDS011;57119;52.516;13.508;2023-07-20T04:05:07;12.67;;;9.00;;
69822;SDS011;57119;52.516;13.508;2023-07-20T04:07:33;15.43;;;9.33;;
69822;SDS011;57119;52.516;13.508;2023-07-20T04:09:58;13.33;;;9.20;;
69822;SDS011;57119;52.516;13.508;2023-07-20T04:12:23;13.03;;;8.63;;
69822;SDS011;57119;52.516;13.508;2023-07-20T04:14:49;16.07;;;9.17;;
69822;SDS011;57119;52.516;13.508;2023-07-20T04:17:14;13.83;;;9.27;;
69822;SDS011;57119;52.516;13.508;2023-07-20T04:19:39;12.27;;;8.70;;
69822;SDS011;57119;52.516;13.508;2023-07-20T04:22:05;14.43;;;9.15;;
69822;SDS011;57119;52.516;13.508;2023-07-20T04:24:30;14.40;;;8.93;;
69822;SDS011;57119;52.516;13.508;2023-07-20T04:26:55;13.37;;;9.60;;
69822;SDS011;57119;52.516;13.508;2023-07-20T04:29:21;12.73;;;8.97;;
69822;SDS011;57119;52.516;13.508;2023-07-20T04:31:46;14.73;;;9.03;;
69822;SDS011;57119;52.516;13.508;2023-07-20T04:34:12;14.70;;;8.80;;
69822;SDS011;57119;52.516;13.508;2023-07-20T04:36:37;21.13;;;9.70;;
69822;SDS011;57119;52.516;13.508;2023-07-20T04:39:03;15.73;;;9.30;;
69822;SDS011;57119;52.516;13.508;2023-07-20T04:41:29;13.75;;;9.00;;
69822;SDS011;57119;52.516;13.508;2023-07-20T04:43:55;17.33;;;9.50;;
69822;SDS011;57119;52.516;13.508;2023-07-20T04:46:20;15.20;;;9.90;;
69822;SDS011;57119;52.516;13.508;2023-07-20T04:48:48;15.60;;;9.75;;
69822;SDS011;57119;52.516;13.508;2023-07-20T04:51:14;20.27;;;13.10;;
69822;SDS011;57119;52.516;13.508;2023-07-20T04:53:39;17.93;;;10.73;;
69822;SDS011;57119;52.516;13.508;2023-07-20T04:56:04;15.37;;;9.97;;
69822;SDS011;57119;52.516;13.508;2023-07-20T04:58:30;13.37;;;8.47;;
69822;SDS011;57119;52.516;13.508;2023-07-20T05:00:55;15.13;;;9.20;;
69822;SDS011;57119;52.516;13.508;2023-07-20T05:03:20;14.77;;;8.00;;
69822;SDS011;57119;52.516;13.508;2023-07-20T05:05:46;11.73;;;7.87;;
69822;SDS011;57119;52.516;13.508;2023-07-20T05:08:13;11.98;;;7.63;;
69822;SDS011;57119;52.516;13.508;2023-07-20T05:10:38;11.20;;;7.53;;
69822;SDS011;57119;52.516;13.508;2023-07-20T05:13:03;10.87;;;7.00;;
69822;SDS011;57119;52.516;13.508;2023-07-20T05:15:29;12.88;;;7.63;;
69822;SDS011;57119;52.516;13.508;2023-07-20T05:17:54;12.53;;;7.53;;
69822;SDS011;57119;52.516;13.508;2023-07-20T05:20:19;11.97;;;7.27;;
69822;SDS011;57119;52.516;13.508;2023-07-20T05:22:45;11.07;;;7.32;;
69822;SDS011;57119;52.516;13.508;2023-07-20T05:25:11;11.33;;;7.20;;
69822;SDS011;57119;52.516;13.508;2023-07-20T05:27:36;14.53;;;9.73;;
69822;SDS011;57119;52.516;13.508;2023-07-20T05:30:03;10.65;;;6.35;;
69822;SDS011;57119;52.516;13.508;2023-07-20T05:32:28;10.10;;;5.88;;
69822;SDS011;57119;52.516;13.508;2023-07-20T05:34:54;9.47;;;5.43;;
69822;SDS011;57119;52.516;13.508;2023-07-20T05:37:20;8.07;;;4.70;;
69822;SDS011;57119;52.516;13.508;2023-07-20T05:39:45;9.68;;;5.25;;
69822;SDS011;57119;52.516;13.508;2023-07-20T05:42:11;10.07;;;5.45;;
69822;SDS011;57119;52.516;13.508;2023-07-20T05:44:36;9.13;;;5.33;;
69822;SDS011;57119;52.516;13.508;2023-07-20T05:47:02;11.50;;;5.20;;
69822;SDS011;57119;52.516;13.508;2023-07-20T05:49:30;9.50;;;5.07;;
69822;SDS011;57119;52.516;13.508;2023-07-20T05:51:55;9.10;;;4.93;;
69822;SDS011;57119;52.516;13.508;2023-07-20T05:54:21;10.75;;;5.55;;
69822;SDS011;57119;52.516;13.508;2023-07-20T05:56:48;9.13;;;5.15;;
69822;SDS011;57119;52.516;13.508;2023-07-20T05:59:14;8.67;;;4.70;;
69822;SDS011;57119;52.516;13.508;2023-07-20T06:01:40;9.55;;;5.20;;
69822;SDS011;57119;52.516;13.508;2023-07-20T06:04:05;9.43;;;5.13;;
69822;SDS011;57119;52.516;13.508;2023-07-20T06:06:31;8.10;;;5.30;;
69822;SDS011;57119;52.516;13.508;2023-07-20T06:08:56;8.70;;;5.83;;
69822;SDS011;57119;52.516;13.508;2023-07-20T06:11:21;10.10;;;6.15;;
69822;SDS011;57119;52.516;13.508;2023-07-20T06:13:47;9.47;;;5.63;;
69822;SDS011;57119;52.516;13.508;2023-07-20T06:16:12;10.73;;;6.30;;
69822;SDS011;57119;52.516;13.508;2023-07-20T06:18:37;8.53;;;5.53;;
69822;SDS011;57119;52.516;13.508;2023-07-20T06:21:03;9.95;;;5.25;;
69822;SDS011;57119;52.516;13.508;2023-07-20T06:23:28;9.93;;;5.37;;
69822;SDS011;57119;52.516;13.508;2023-07-20T06:25:54;10.07;;;5.30;;
69822;SDS011;57119;52.516;13.508;2023-07-20T06:28:19;10.23;;;6.20;;
69822;SDS011;57119;52.516;13.508;2023-07-20T06:30:45;9.18;;;5.75;;
69822;SDS011;57119;52.516;13.508;2023-07-20T06:33:10;10.33;;;5.50;;
69822;SDS011;57119;52.516;13.508;2023-07-20T06:35:35;9.40;;;5.70;;
69822;SDS011;57119;52.516;13.508;2023-07-20T06:38:01;9.37;;;5.47;;
69822;SDS011;57119;52.516;13.508;2023-07-20T06:40:28;8.68;;;5.35;;
69822;SDS011;57119;52.516;13.508;2023-07-20T06:42:55;12.00;;;5.47;;
69822;SDS011;57119;52.516;13.508;2023-07-20T06:45:20;8.20;;;4.47;;
69822;SDS011;57119;52.516;13.508;2023-07-20T06:47:45;8.47;;;3.87;;
69822;SDS011;57119;52.516;13.508;2023-07-20T06:50:11;6.80;;;3.67;;
69822;SDS011;57119;52.516;13.508;2023-07-20T06:52:36;7.43;;;3.53;;
69822;SDS011;57119;52.516;13.508;2023-07-20T06:55:02;7.07;;;3.50;;
69822;SDS011;57119;52.516;13.508;2023-07-20T06:57:28;7.78;;;3.40;;
69822;SDS011;57119;52.516;13.508;2023-07-20T06:59:54;6.57;;;3.47;;
69822;SDS011;57119;52.516;13.508;2023-07-20T07:02:19;6.20;;;3.27;;
69822;SDS011;57119;52.516;13.508;2023-07-20T07:04:45;5.73;;;3.00;;
69822;SDS011;57119;52.516;13.508;2023-07-20T07:07:13;7.65;;;3.80;;
69822;SDS011;57119;52.516;13.508;2023-07-20T07:09:39;6.65;;;3.13;;
69822;SDS011;57119;52.516;13.508;2023-07-20T07:12:04;7.43;;;3.60;;
69822;SDS011;57119;52.516;13.508;2023-07-20T07:14:30;6.57;;;3.10;;
69822;SDS011;57119;52.516;13.508;2023-07-20T07:16:55;6.83;;;2.97;;
69822;SDS011;57119;52.516;13.508;2023-07-20T07:19:21;6.63;;;2.30;;
69822;SDS011;57119;52.516;13.508;2023-07-20T07:21:46;5.97;;;2.80;;
69822;SDS011;57119;52.516;13.508;2023-07-20T07:24:11;4.93;;;2.42;;
69822;SDS011;57119;52.516;13.508;2023-07-20T07:26:37;4.43;;;2.03;;
69822;SDS011;57119;52.516;13.508;2023-07-20T07:29:03;5.53;;;2.43;;
69822;SDS011;57119;52.516;13.508;2023-07-20T07:31:29;5.05;;;2.65;;
69822;SDS011;57119;52.516;13.508;2023-07-20T07:33:55;6.55;;;2.65;;
69822;SDS011;57119;52.516;13.508;2023-07-20T07:36:20;4.60;;;2.30;;
69822;SDS011;57119;52.516;13.508;2023-07-20T07:38:46;5.47;;;2.33;;
69822;SDS011;57119;52.516;13.508;2023-07-20T07:41:11;4.27;;;1.83;;
69822;SDS011;57119;52.516;13.508;2023-07-20T07:43:36;3.70;;;1.80;;
69822;SDS011;57119;52.516;13.508;2023-07-20T07:46:03;3.40;;;1.67;;
69822;SDS011;57119;52.516;13.508;2023-07-20T07:48:28;3.45;;;1.67;;
69822;SDS011;57119;52.516;13.508;2023-07-20T07:50:54;4.63;;;1.80;;
69822;SDS011;57119;52.516;13.508;2023-07-20T07:53:23;3.80;;;1.80;;
69822;SDS011;57119;52.516;13.508;2023-07-20T07:55:50;4.33;;;1.73;;
69822;SDS011;57119;52.516;13.508;2023-07-20T07:58:16;3.53;;;1.60;;
69822;SDS011;57119;52.516;13.508;2023-07-20T08:00:41;4.65;;;1.85;;
69822;SDS011;57119;52.516;13.508;2023-07-20T08:03:06;4.43;;;1.37;;
69822;SDS011;57119;52.516;13.508;2023-07-20T08:05:33;4.47;;;1.70;;
69822;SDS011;57119;52.516;13.508;2023-07-20T08:07:58;5.65;;;1.85;;
69822;SDS011;57119;52.516;13.508;2023-07-20T08:10:23;3.63;;;1.80;;
69822;SDS011;57119;52.516;13.508;2023-07-20T08:12:49;4.73;;;1.80;;
69822;SDS011;57119;52.516;13.508;2023-07-20T08:15:14;3.30;;;1.57;;
69822;SDS011;57119;52.516;13.508;2023-07-20T08:17:40;3.50;;;1.50;;
69822;SDS011;57119;52.516;13.508;2023-07-20T08:20:07;4.17;;;1.90;;
69822;SDS011;57119;52.516;13.508;2023-07-20T08:22:36;4.20;;;1.70;;
69822;SDS011;57119;52.516;13.508;2023-07-20T08:25:01;3.10;;;1.30;;
69822;SDS011;57119;52.516;13.508;2023-07-20T08:27:27;5.90;;;1.60;;
69822;SDS011;57119;52.516;13.508;2023-07-20T08:29:53;3.37;;;1.67;;
69822;SDS011;57119;52.516;13.508;2023-07-20T08:32:18;11.07;;;1.63;;
69822;SDS011;57119;52.516;13.508;2023-07-20T08:34:44;3.83;;;1.80;;
69822;SDS011;57119;52.516;13.508;2023-07-20T08:37:09;3.80;;;1.80;;
69822;SDS011;57119;52.516;13.508;2023-07-20T08:39:35;3.43;;;1.63;;
69822;SDS011;57119;52.516;13.508;2023-07-20T08:42:01;3.35;;;1.55;;
69822;SDS011;57119;52.516;13.508;2023-07-20T08:44:32;3.60;;;1.75;;
69822;SDS011;57119;52.516;13.508;2023-07-20T08:46:58;3.55;;;1.70;;
69822;SDS011;57119;52.516;13.508;2023-07-20T08:49:25;4.47;;;1.67;;
69822;SDS011;57119;52.516;13.508;2023-07-20T08:51:51;4.32;;;2.35;;
69822;SDS011;57119;52.516;13.508;2023-07-20T08:54:17;3.38;;;1.33;;
69822;SDS011;57119;52.516;13.508;2023-07-20T08:56:43;4.17;;;1.70;;
69822;SDS011;57119;52.516;13.508;2023-07-20T08:59:10;3.53;;;1.60;;
69822;SDS011;57119;52.516;13.508;2023-07-20T09:01:39;3.70;;;1.27;;
69822;SDS011;57119;52.516;13.508;2023-07-20T09:04:05;3.47;;;1.30;;
69822;SDS011;57119;52.516;13.508;2023-07-20T09:06:31;3.00;;;1.65;;
69822;SDS011;57119;52.516;13.508;2023-07-20T09:08:56;3.20;;;1.63;;
69822;SDS011;57119;52.516;13.508;2023-07-20T09:11:22;3.35;;;1.70;;
69822;SDS011;57119;52.516;13.508;2023-07-20T09:13:47;4.23;;;1.50;;
69822;SDS011;57119;52.516;13.508;2023-07-20T09:16:13;2.53;;;1.40;;
69822;SDS011;57119;52.516;13.508;2023-07-20T09:18:39;3.30;;;1.23;;
69822;SDS011;57119;52.516;13.508;2023-07-20T09:21:05;3.67;;;1.70;;
69822;SDS011;57119;52.516;13.508;2023-07-20T09:23:38;4.90;;;1.50;;
69822;SDS011;57119;52.516;13.508;2023-07-20T09:26:11;3.35;;;1.60;;
69822;SDS011;57119;52.516;13.508;2023-07-20T09:28:44;4.10;;;1.30;;
69822;SDS011;57119;52.516;13.508;2023-07-20T09:31:20;6.38;;;1.73;;
69822;SDS011;57119;52.516;13.508;2023-07-20T09:33:47;3.83;;;1.27;;
69822;SDS011;57119;52.516;13.508;2023-07-20T09:36:13;3.10;;;1.40;;
69822;SDS011;57119;52.516;13.508;2023-07-20T09:38:40;4.20;;;1.20;;
69822;SDS011;57119;52.516;13.508;2023-07-20T09:41:06;5.15;;;1.65;;
69822;SDS011;57119;52.516;13.508;2023-07-20T09:43:33;3.67;;;1.70;;
69822;SDS011;57119;52.516;13.508;2023-07-20T09:45:59;4.15;;;1.30;;
69822;SDS011;57119;52.516;13.508;2023-07-20T09:48:25;3.28;;;1.00;;
69822;SDS011;57119;52.516;13.508;2023-07-20T09:50:53;4.30;;;1.50;;
69822;SDS011;57119;52.516;13.508;2023-07-20T09:53:19;2.80;;;1.25;;
69822;SDS011;57119;52.516;13.508;2023-07-20T09:55:47;3.53;;;1.30;;
69822;SDS011;57119;52.516;13.508;2023-07-20T09:58:13;2.97;;;1.27;;
69822;SDS011;57119;52.516;13.508;2023-07-20T10:00:41;3.50;;;1.20;;
69822;SDS011;57119;52.516;13.508;2023-07-20T10:03:11;5.70;;;1.48;;
69822;SDS011;57119;52.516;13.508;2023-07-20T10:05:43;5.32;;;1.38;;
69822;SDS011;57119;52.516;13.508;2023-07-20T10:08:12;3.83;;;1.10;;
69822;SDS011;57119;52.516;13.508;2023-07-20T10:10:38;4.53;;;1.07;;
69822;SDS011;57119;52.516;13.508;2023-07-20T10:13:08;2.70;;;1.00;;
69822;SDS011;57119;52.516;13.508;2023-07-20T10:15:43;4.05;;;1.33;;
69822;SDS011;57119;52.516;13.508;2023-07-20T10:18:21;3.22;;;1.10;;
69822;SDS011;57119;52.516;13.508;2023-07-20T10:20:53;3.25;;;1.20;;
69822;SDS011;57119;52.516;13.508;2023-07-20T10:23:19;5.17;;;1.47;;
69822;SDS011;57119;52.516;13.508;2023-07-20T10:25:46;4.50;;;1.63;;
69822;SDS011;57119;52.516;13.508;2023-07-20T10:28:12;4.20;;;1.73;;
69822;SDS011;57119;52.516;13.508;2023-07-20T10:30:38;6.97;;;2.80;;
69822;SDS011;57119;52.516;13.508;2023-07-20T10:33:04;19.90;;;8.80;;
69822;SDS011;57119;52.516;13.508;2023-07-20T10:35:30;9.85;;;2.85;;
69822;SDS011;57119;52.516;13.508;2023-07-20T10:38:15;10.20;;;3.53;;
69822;SDS011;57119;52.516;13.508;2023-07-20T10:40:40;5.00;;;1.73;;
69822;SDS011;57119;52.516;13.508;2023-07-20T10:43:09;3.57;;;1.27;;
69822;SDS011;57119;52.516;13.508;2023-07-20T10:48:04;13.38;;;4.80;;
69822;SDS011;57119;52.516;13.508;2023-07-20T10:51:08;5.95;;;2.63;;
69822;SDS011;57119;52.516;13.508;2023-07-20T10:53:41;12.82;;;6.47;;
69822;SDS011;57119;52.516;13.508;2023-07-20T10:58:45;8.35;;;3.58;;
69822;SDS011;57119;52.516;13.508;2023-07-20T11:01:14;5.50;;;1.80;;
69822;SDS011;57119;52.516;13.508;2023-07-20T11:03:43;4.40;;;1.48;;
69822;SDS011;57119;52.516;13.508;2023-07-20T11:06:36;4.25;;;1.70;;
69822;SDS011;57119;52.516;13.508;2023-07-20T11:09:04;4.30;;;1.67;;
69822;SDS011;57119;52.516;13.508;2023-07-20T11:11:32;4.00;;;1.45;;
69822;SDS011;57119;52.516;13.508;2023-07-20T11:14:00;4.43;;;1.70;;
69822;SDS011;57119;52.516;13.508;2023-07-20T11:17:10;4.68;;;1.60;;
69822;SDS011;57119;52.516;13.508;2023-07-20T11:19:21;6.18;;;2.13;;
69822;SDS011;57119;52.516;13.508;2023-07-20T11:21:58;5.23;;;2.60;;
69822;SDS011;57119;52.516;13.508;2023-07-20T11:24:23;9.55;;;1.90;;
69822;SDS011;57119;52.516;13.508;2023-07-20T11:29:21;4.90;;;1.70;;
69822;SDS011;57119;52.516;13.508;2023-07-20T11:31:48;5.00;;;1.70;;
69822;SDS011;57119;52.516;13.508;2023-07-20T11:34:15;2.92;;;1.30;;
69822;SDS011;57119;52.516;13.508;2023-07-20T11:36:42;6.75;;;1.83;;
69822;SDS011;57119;52.516;13.508;2023-07-20T11:39:15;6.22;;;1.83;;
69822;SDS011;57119;52.516;13.508;2023-07-20T11:41:51;7.47;;;1.98;;
69822;SDS011;57119;52.516;13.508;2023-07-20T11:44:18;4.30;;;1.50;;
69822;SDS011;57119;52.516;13.508;2023-07-20T11:46:50;4.25;;;1.95;;
69822;SDS011;57119;52.516;13.508;2023-07-20T11:49:15;5.78;;;2.40;;
69822;SDS011;57119;52.516;13.508;2023-07-20T11:51:40;4.70;;;2.37;;
69822;SDS011;57119;52.516;13.508;2023-07-20T11:54:07;4.77;;;2.70;;
69822;SDS011;57119;52.516;13.508;2023-07-20T11:56:34;4.93;;;2.25;;
69822;SDS011;57119;52.516;13.508;2023-07-20T11:58:59;5.00;;;2.30;;
69822;SDS011;57119;52.516;13.508;2023-07-20T12:01:26;3.60;;;1.75;;
69822;SDS011;57119;52.516;13.508;2023-07-20T12:04:00;3.75;;;2.20;;
69822;SDS011;57119;52.516;13.508;2023-07-20T12:06:28;2.85;;;1.08;;
69822;SDS011;57119;52.516;13.508;2023-07-20T12:08:54;6.25;;;1.60;;
69822;SDS011;57119;52.516;13.508;2023-07-20T12:11:32;4.00;;;1.60;;
69822;SDS011;57119;52.516;13.508;2023-07-20T12:14:02;3.30;;;1.20;;
69822;SDS011;57119;52.516;13.508;2023-07-20T12:16:29;3.95;;;1.40;;
69822;SDS011;57119;52.516;13.508;2023-07-20T12:21:34;5.00;;;1.17;;
69822;SDS011;57119;52.516;13.508;2023-07-20T12:24:03;3.77;;;1.50;;
69822;SDS011;57119;52.516;13.508;2023-07-20T12:26:30;3.25;;;1.10;;
69822;SDS011;57119;52.516;13.508;2023-07-20T12:28:57;4.25;;;0.95;;
69822;SDS011;57119;52.516;13.508;2023-07-20T12:31:23;7.88;;;1.33;;
69822;SDS011;57119;52.516;13.508;2023-07-20T12:33:52;4.67;;;1.30;;
69822;SDS011;57119;52.516;13.508;2023-07-20T12:36:20;3.90;;;1.42;;
69822;SDS011;57119;52.516;13.508;2023-07-20T12:38:46;2.92;;;1.40;;
69822;SDS011;57119;52.516;13.508;2023-07-20T12:41:11;4.00;;;1.20;;
69822;SDS011;57119;52.516;13.508;2023-07-20T12:43:38;2.85;;;1.13;;
69822;SDS011;57119;52.516;13.508;2023-07-20T12:46:05;2.38;;;1.10;;
69822;SDS011;57119;52.516;13.508;2023-07-20T12:48:30;2.97;;;1.03;;
69822;SDS011;57119;52.516;13.508;2023-07-20T12:50:56;4.13;;;1.57;;
69822;SDS011;57119;52.516;13.508;2023-07-20T12:53:21;2.72;;;1.30;;
69822;SDS011;57119;52.516;13.508;2023-07-20T12:55:47;4.27;;;2.40;;
69822;SDS011;57119;52.516;13.508;2023-07-20T12:58:12;3.30;;;2.17;;
69822;SDS011;57119;52.516;13.508;2023-07-20T13:00:38;4.57;;;2.20;;
69822;SDS011;57119;52.516;13.508;2023-07-20T13:03:04;4.63;;;2.25;;
69822;SDS011;57119;52.516;13.508;2023-07-20T13:05:29;4.03;;;2.10;;
69822;SDS011;57119;52.516;13.508;2023-07-20T13:07:56;3.47;;;2.30;;
69822;SDS011;57119;52.516;13.508;2023-07-20T13:10:22;5.33;;;2.40;;
69822;SDS011;57119;52.516;13.508;2023-07-20T13:12:47;3.83;;;2.17;;
69822;SDS011;57119;52.516;13.508;2023-07-20T13:15:12;4.67;;;2.17;;
69822;SDS011;57119;52.516;13.508;2023-07-20T13:17:38;3.40;;;2.00;;
69822;SDS011;57119;52.516;13.508;2023-07-20T13:20:05;4.38;;;2.38;;
69822;SDS011;57119;52.516;13.508;2023-07-20T13:22:32;3.88;;;2.50;;
69822;SDS011;57119;52.516;13.508;2023-07-20T13:24:58;2.95;;;1.38;;
69822;SDS011;57119;52.516;13.508;2023-07-20T13:27:24;4.67;;;2.50;;
69822;SDS011;57119;52.516;13.508;2023-07-20T13:29:51;4.45;;;2.67;;
69822;SDS011;57119;52.516;13.508;2023-07-20T13:32:16;6.10;;;2.80;;
69822;SDS011;57119;52.516;13.508;2023-07-20T13:34:43;4.00;;;2.60;;
69822;SDS011;57119;52.516;13.508;2023-07-20T13:37:09;4.28;;;3.05;;
69822;SDS011;57119;52.516;13.508;2023-07-20T13:39:38;5.93;;;2.90;;
69822;SDS011;57119;52.516;13.508;2023-07-20T13:42:03;4.75;;;2.42;;
69822;SDS011;57119;52.516;13.508;2023-07-20T13:44:33;3.88;;;2.50;;
69822;SDS011;57119;52.516;13.508;2023-07-20T13:46:59;4.05;;;2.78;;
69822;SDS011;57119;52.516;13.508;2023-07-20T13:49:24;4.90;;;3.10;;
69822;SDS011;57119;52.516;13.508;2023-07-20T13:51:50;4.00;;;2.73;;
69822;SDS011;57119;52.516;13.508;2023-07-20T13:54:15;4.27;;;2.73;;
69822;SDS011;57119;52.516;13.508;2023-07-20T13:56:40;5.23;;;2.80;;
69822;SDS011;57119;52.516;13.508;2023-07-20T13:59:06;3.73;;;2.30;;
69822;SDS011;57119;52.516;13.508;2023-07-20T14:01:31;4.97;;;3.00;;
69822;SDS011;57119;52.516;13.508;2023-07-20T14:03:59;4.00;;;2.70;;
69822;SDS011;57119;52.516;13.508;2023-07-20T14:06:25;4.40;;;3.03;;
69822;SDS011;57119;52.516;13.508;2023-07-20T14:08:50;4.72;;;3.25;;
69822;SDS011;57119;52.516;13.508;2023-07-20T14:11:17;6.10;;;3.30;;
69822;SDS011;57119;52.516;13.508;2023-07-20T14:13:43;4.10;;;3.00;;
69822;SDS011;57119;52.516;13.508;2023-07-20T14:16:09;4.07;;;2.53;;
69822;SDS011;57119;52.516;13.508;2023-07-20T14:18:34;6.60;;;2.30;;
69822;SDS011;57119;52.516;13.508;2023-07-20T14:21:00;4.50;;;2.50;;
69822;SDS011;57119;52.516;13.508;2023-07-20T14:23:28;4.35;;;3.08;;
69822;SDS011;57119;52.516;13.508;2023-07-20T14:25:53;5.32;;;3.55;;
69822;SDS011;57119;52.516;13.508;2023-07-20T14:28:19;3.73;;;1.10;;
69822;SDS011;57119;52.516;13.508;2023-07-20T14:30:45;3.25;;;1.67;;
69822;SDS011;57119;52.516;13.508;2023-07-20T14:33:10;5.10;;;2.20;;
69822;SDS011;57119;52.516;13.508;2023-07-20T14:35:36;5.93;;;2.70;;
69822;SDS011;57119;52.516;13.508;2023-07-20T14:38:02;4.85;;;2.33;;
69822;SDS011;57119;52.516;13.508;2023-07-20T14:40:27;4.97;;;2.67;;
69822;SDS011;57119;52.516;13.508;2023-07-20T14:42:53;3.50;;;2.03;;
69822;SDS011;57119;52.516;13.508;2023-07-20T14:45:20;3.78;;;1.52;;
69822;SDS011;57119;52.516;13.508;2023-07-20T14:47:45;6.07;;;3.23;;
69822;SDS011;57119;52.516;13.508;2023-07-20T14:50:10;5.57;;;1.65;;